createdAt,value
2018-08-31T00:01:13.701Z,1.00
2018-08-31T00:03:41.376Z,0.40
2018-08-31T00:06:07.966Z,0.00
2018-08-31T00:08:36.018Z,0.40
2018-08-31T00:11:02.837Z,1.00
2018-08-31T00:13:29.369Z,1.00
2018-08-31T00:15:55.864Z,0.00
2018-08-31T00:18:23.333Z,1.80
2018-08-31T00:20:50.017Z,1.80
2018-08-31T00:23:16.557Z,1.80
2018-08-31T00:25:43.034Z,3.00
2018-08-31T00:28:10.232Z,0.80
2018-08-31T00:30:37.014Z,2.60
2018-08-31T00:33:03.492Z,1.00
2018-08-31T00:35:29.952Z,2.20
2018-08-31T00:37:56.733Z,1.40
2018-08-31T00:40:23.587Z,1.00
2018-08-31T00:42:50.072Z,2.60
2018-08-31T00:45:16.988Z,1.00
2018-08-31T00:47:44.329Z,3.00
2018-08-31T00:50:10.784Z,2.20
2018-08-31T00:52:38.166Z,1.00
2018-08-31T00:55:05.150Z,1.80
2018-08-31T00:57:31.990Z,3.00
2018-08-31T00:59:58.445Z,3.00
2018-08-31T01:02:26.245Z,1.00
2018-08-31T01:04:52.726Z,4.00
2018-08-31T01:07:19.190Z,3.00
2018-08-31T01:09:47.574Z,2.60
2018-08-31T01:12:14.397Z,3.00
2018-08-31T01:14:40.882Z,1.00
2018-08-31T01:17:07.668Z,4.00
2018-08-31T01:19:34.489Z,1.00
2018-08-31T01:22:00.992Z,3.00
2018-08-31T01:24:27.485Z,3.00
2018-08-31T01:26:54.013Z,3.40
2018-08-31T01:29:20.820Z,3.00
2018-08-31T01:31:47.301Z,3.60
2018-08-31T01:34:13.758Z,1.80
2018-08-31T01:36:40.637Z,3.00
2018-08-31T01:39:07.517Z,2.60
2018-08-31T01:41:34.095Z,3.00
2018-08-31T01:44:00.572Z,1.00
2018-08-31T01:46:27.389Z,1.00
2018-08-31T01:48:53.874Z,1.00
2018-08-31T01:51:20.337Z,3.40
2018-08-31T01:53:47.127Z,1.00
2018-08-31T01:56:13.641Z,1.00
2018-08-31T01:58:40.119Z,1.00
2018-08-31T02:01:06.927Z,2.20
2018-08-31T02:03:33.402Z,2.20
2018-08-31T02:05:59.858Z,1.00
2018-08-31T02:08:26.722Z,2.20
2018-08-31T02:10:53.170Z,3.00
2018-08-31T02:13:19.631Z,3.80
2018-08-31T02:15:46.420Z,2.20
2018-08-31T02:18:12.894Z,1.00
2018-08-31T02:20:39.395Z,3.20
2018-08-31T02:23:06.400Z,3.00
2018-08-31T02:25:33.789Z,1.80
2018-08-31T02:28:00.275Z,1.80
2018-08-31T02:30:26.765Z,1.00
2018-08-31T02:32:53.830Z,1.00
2018-08-31T02:35:20.637Z,1.00
2018-08-31T02:37:48.065Z,1.00
2018-08-31T02:40:14.863Z,1.00
2018-08-31T02:42:41.346Z,1.80
2018-08-31T02:45:07.930Z,2.60
2018-08-31T02:47:34.402Z,2.20
2018-08-31T02:50:01.201Z,1.80
2018-08-31T02:52:27.674Z,1.40
2018-08-31T02:54:54.252Z,2.20
2018-08-31T02:57:20.724Z,3.00
2018-08-31T02:59:47.645Z,1.80
2018-08-31T03:02:14.109Z,3.00
2018-08-31T03:04:40.917Z,3.00
2018-08-31T03:07:07.866Z,3.00
2018-08-31T03:09:34.354Z,3.00
2018-08-31T03:12:00.864Z,2.60
2018-08-31T03:14:27.363Z,2.60
2018-08-31T03:16:54.230Z,4.00
2018-08-31T03:19:20.722Z,2.20
2018-08-31T03:21:48.336Z,1.00
2018-08-31T03:24:14.797Z,1.00
2018-08-31T03:26:42.080Z,3.00
2018-08-31T03:29:08.612Z,2.20
2018-08-31T03:31:35.438Z,3.00
2018-08-31T03:34:01.927Z,3.00
2018-08-31T03:36:31.848Z,3.00
2018-08-31T03:38:58.364Z,1.00
2018-08-31T03:41:25.065Z,2.20
2018-08-31T03:43:51.534Z,3.00
2018-08-31T03:46:18.058Z,2.60
2018-08-31T03:48:44.602Z,1.40
2018-08-31T03:51:12.499Z,3.80
2018-08-31T03:53:39.030Z,2.60
2018-08-31T03:56:06.422Z,3.00
2018-08-31T03:58:33.329Z,5.20
2018-08-31T04:01:00.417Z,3.60
2018-08-31T04:03:26.893Z,3.00
2018-08-31T04:05:53.416Z,3.80
2018-08-31T04:08:20.246Z,3.00
2018-08-31T04:10:47.033Z,1.40
2018-08-31T04:13:13.499Z,2.20
2018-08-31T04:15:41.685Z,3.00
2018-08-31T04:18:08.508Z,4.00
2018-08-31T04:20:35.008Z,3.00
2018-08-31T04:23:01.534Z,1.00
2018-08-31T04:25:28.413Z,3.20
2018-08-31T04:27:54.902Z,2.60
2018-08-31T04:30:21.401Z,3.60
2018-08-31T04:32:48.317Z,3.80
2018-08-31T04:35:14.785Z,1.00
2018-08-31T04:37:41.260Z,2.20
2018-08-31T04:40:08.213Z,2.20
2018-08-31T04:42:34.725Z,3.20
2018-08-31T04:45:01.213Z,3.00
2018-08-31T04:47:28.088Z,1.00
2018-08-31T04:49:54.567Z,3.00
2018-08-31T04:52:21.018Z,4.00
2018-08-31T04:54:48.399Z,1.00
2018-08-31T04:57:14.910Z,3.60
2018-08-31T04:59:41.396Z,0.20
2018-08-31T05:02:08.281Z,4.00
2018-08-31T05:04:34.738Z,3.00
2018-08-31T05:07:01.248Z,3.00
2018-08-31T05:09:28.213Z,3.00
2018-08-31T05:11:54.660Z,3.20
2018-08-31T05:14:21.120Z,3.00
2018-08-31T05:16:47.901Z,3.00
2018-08-31T05:19:14.697Z,3.40
2018-08-31T05:21:41.175Z,3.40
2018-08-31T05:24:08.030Z,3.60
2018-08-31T05:26:34.497Z,2.20
2018-08-31T05:29:01.061Z,0.00
2018-08-31T05:31:28.030Z,3.00
2018-08-31T05:33:54.514Z,4.00
2018-08-31T05:36:21.392Z,6.80
2018-08-31T05:38:48.547Z,4.00
2018-08-31T05:41:15.895Z,4.00
2018-08-31T05:43:43.386Z,1.80
2018-08-31T05:46:10.336Z,6.00
2018-08-31T05:48:36.827Z,3.80
2018-08-31T05:51:03.285Z,5.60
2018-08-31T05:53:30.226Z,3.40
2018-08-31T05:55:56.893Z,4.00
2018-08-31T05:58:23.354Z,6.00
2018-08-31T06:00:51.741Z,6.40
2018-08-31T06:03:18.239Z,5.60
2018-08-31T06:05:44.745Z,7.00
2018-08-31T06:08:11.306Z,4.00
2018-08-31T06:10:37.825Z,7.00
2018-08-31T06:13:05.483Z,5.20
2018-08-31T06:15:31.975Z,3.00
2018-08-31T06:17:58.453Z,3.60
2018-08-31T06:20:25.271Z,3.80
2018-08-31T06:22:51.748Z,5.20
2018-08-31T06:25:18.283Z,3.60
2018-08-31T06:27:45.117Z,3.60
2018-08-31T06:30:12.267Z,3.60
2018-08-31T06:32:39.781Z,5.20
2018-08-31T06:35:06.614Z,4.40
2018-08-31T06:37:33.402Z,5.60
2018-08-31T06:39:59.883Z,3.40
2018-08-31T06:42:26.710Z,3.80
2018-08-31T06:44:54.505Z,3.00
2018-08-31T06:47:21.005Z,4.80
2018-08-31T06:49:47.785Z,4.40
2018-08-31T06:52:14.246Z,3.60
2018-08-31T06:54:40.751Z,4.00
2018-08-31T06:57:08.505Z,4.00
2018-08-31T06:59:34.954Z,3.00
2018-08-31T07:02:01.413Z,5.60
2018-08-31T07:04:28.493Z,3.40
2018-08-31T07:06:54.999Z,0.00
2018-08-31T07:09:21.781Z,5.60
2018-08-31T07:11:48.561Z,5.60
2018-08-31T07:14:15.792Z,5.20
2018-08-31T07:16:42.308Z,4.00
2018-08-31T07:19:09.208Z,5.60
2018-08-31T07:21:35.641Z,6.00
2018-08-31T07:24:02.147Z,4.00
2018-08-31T07:26:28.984Z,4.00
2018-08-31T07:28:55.469Z,6.00
2018-08-31T07:31:21.950Z,4.80
2018-08-31T07:33:49.125Z,2.60
2018-08-31T07:36:16.015Z,3.00
2018-08-31T07:38:42.489Z,3.40
2018-08-31T07:41:09.268Z,3.00
2018-08-31T07:43:35.729Z,1.00
2018-08-31T07:46:02.260Z,3.20
2018-08-31T07:48:30.092Z,2.20
2018-08-31T07:50:56.673Z,1.80
2018-08-31T07:53:23.310Z,3.00
2018-08-31T07:55:54.715Z,1.00
2018-08-31T07:58:21.211Z,2.60
2018-08-31T08:00:48.299Z,0.20
2018-08-31T08:03:15.059Z,1.00
2018-08-31T08:05:41.607Z,1.00
2018-08-31T08:08:08.376Z,1.00
2018-08-31T08:10:35.187Z,1.00
2018-08-31T08:13:02.082Z,1.00
2018-08-31T08:15:28.586Z,1.00
2018-08-31T08:17:55.385Z,1.00
2018-08-31T08:20:22.205Z,0.00
2018-08-31T08:22:49.041Z,0.00
2018-08-31T08:25:15.846Z,0.60
2018-08-31T08:27:42.536Z,0.00
2018-08-31T08:30:09.024Z,0.00
2018-08-31T08:32:37.280Z,0.00
2018-08-31T08:35:04.077Z,0.00
2018-08-31T08:37:31.156Z,0.40
2018-08-31T08:39:57.921Z,0.00
2018-08-31T08:42:24.509Z,0.00
2018-08-31T08:44:51.093Z,0.00
2018-08-31T08:47:17.914Z,0.00
2018-08-31T08:49:44.411Z,0.00
2018-08-31T08:52:11.090Z,0.00
2018-08-31T08:54:37.845Z,1.00
2018-08-31T08:57:04.349Z,0.00
2018-08-31T08:59:30.862Z,0.00
2018-08-31T09:01:58.645Z,0.00
2018-08-31T09:04:25.174Z,0.00
2018-08-31T09:06:51.699Z,0.00
2018-08-31T09:09:18.783Z,0.00
2018-08-31T09:11:45.303Z,1.00
2018-08-31T09:14:11.820Z,0.00
2018-08-31T09:16:38.715Z,0.00
2018-08-31T09:19:05.199Z,0.00
2018-08-31T09:21:31.695Z,0.00
2018-08-31T09:23:58.621Z,0.00
2018-08-31T09:26:25.648Z,0.60
2018-08-31T09:28:52.146Z,0.00
2018-08-31T09:31:19.461Z,0.00
2018-08-31T09:33:48.820Z,0.00
2018-08-31T09:36:15.289Z,0.60
2018-08-31T09:38:42.734Z,0.00
2018-08-31T09:41:09.429Z,0.00
2018-08-31T09:43:38.068Z,0.00
2018-08-31T09:46:04.595Z,1.00
2018-08-31T09:48:31.080Z,0.00
2018-08-31T09:50:59.668Z,0.00
2018-08-31T09:53:26.326Z,0.20
2018-08-31T09:55:52.806Z,0.00
2018-08-31T09:58:19.958Z,0.00
2018-08-31T10:00:46.444Z,0.00
2018-08-31T10:03:13.311Z,0.80
2018-08-31T10:05:40.281Z,0.40
2018-08-31T10:08:07.738Z,0.00
2018-08-31T10:10:34.375Z,0.20
2018-08-31T10:13:02.133Z,0.00
2018-08-31T10:15:28.620Z,0.00
2018-08-31T10:17:55.140Z,1.00
2018-08-31T10:20:22.796Z,0.40
2018-08-31T10:22:49.283Z,0.80
2018-08-31T10:25:15.765Z,0.60
2018-08-31T10:27:43.137Z,0.00
2018-08-31T10:30:10.131Z,1.00
2018-08-31T10:32:36.542Z,1.00
2018-08-31T10:35:03.623Z,1.00
2018-08-31T10:37:33.310Z,1.00
2018-08-31T10:39:59.814Z,1.00
2018-08-31T10:42:26.790Z,0.00
2018-08-31T10:47:24.439Z,1.00
2018-08-31T10:49:52.196Z,1.00
2018-08-31T10:52:18.805Z,0.40
2018-08-31T10:54:45.303Z,1.00
2018-08-31T10:57:13.035Z,0.00
2018-08-31T10:59:40.261Z,1.00
2018-08-31T11:02:06.748Z,0.20
2018-08-31T11:04:33.731Z,1.00
2018-08-31T11:07:00.222Z,1.00
2018-08-31T11:09:26.683Z,1.00
2018-08-31T11:11:54.212Z,1.00
2018-08-31T11:14:20.721Z,1.80
2018-08-31T11:16:47.250Z,1.00
2018-08-31T11:19:14.133Z,1.00
2018-08-31T11:21:40.636Z,0.20
2018-08-31T11:24:08.009Z,0.00
2018-08-31T11:26:34.868Z,0.40
2018-08-31T11:29:01.370Z,1.20
2018-08-31T11:31:27.912Z,1.00
2018-08-31T11:33:55.466Z,1.00
2018-08-31T11:36:22.267Z,0.00
2018-08-31T11:38:48.758Z,1.40
2018-08-31T11:41:16.425Z,0.60
2018-08-31T11:43:43.841Z,1.20
2018-08-31T11:46:10.338Z,1.00
2018-08-31T11:48:37.238Z,1.60
2018-08-31T11:51:04.047Z,2.00
2018-08-31T11:53:30.529Z,1.00
2018-08-31T11:56:00.448Z,2.00
2018-08-31T11:58:26.937Z,2.00
2018-08-31T12:00:53.890Z,1.00
2018-08-31T12:03:21.297Z,1.00
2018-08-31T12:05:48.445Z,1.00
2018-08-31T12:08:15.013Z,2.20
2018-08-31T12:13:13.504Z,2.20
2018-08-31T12:15:40.577Z,3.00
2018-08-31T12:18:07.744Z,2.60
2018-08-31T12:20:34.531Z,1.00
2018-08-31T12:23:01.024Z,0.40
2018-08-31T12:25:27.613Z,1.40
2018-08-31T12:27:54.396Z,1.00
2018-08-31T12:30:21.132Z,0.80
2018-08-31T12:32:47.618Z,1.00
2018-08-31T12:35:14.412Z,1.00
2018-08-31T12:37:42.070Z,1.00
2018-08-31T12:40:08.566Z,1.60
2018-08-31T12:42:36.338Z,1.00
2018-08-31T12:45:03.747Z,2.00
2018-08-31T12:47:31.202Z,1.00
2018-08-31T12:49:58.869Z,1.00
2018-08-31T12:52:26.776Z,2.00
2018-08-31T12:54:53.477Z,1.00
2018-08-31T12:57:21.209Z,2.00
2018-08-31T12:59:47.705Z,2.00
2018-08-31T13:02:15.169Z,2.00
2018-08-31T13:04:43.822Z,2.80
2018-08-31T13:07:10.638Z,0.60
2018-08-31T13:09:38.893Z,2.00
2018-08-31T13:12:06.401Z,1.80
2018-08-31T13:14:32.883Z,0.40
2018-08-31T13:16:59.394Z,1.00
2018-08-31T13:19:28.202Z,0.00
2018-08-31T13:21:55.714Z,0.20
2018-08-31T13:24:23.744Z,0.40
2018-08-31T13:26:50.718Z,0.00
2018-08-31T13:29:17.658Z,0.00
2018-08-31T13:31:44.171Z,1.40
2018-08-31T13:34:11.814Z,1.40
2018-08-31T13:36:38.327Z,1.00
2018-08-31T13:39:04.798Z,1.80
2018-08-31T13:41:31.781Z,3.00
2018-08-31T13:44:01.325Z,1.80
2018-08-31T13:46:28.450Z,1.00
2018-08-31T13:48:55.989Z,3.00
2018-08-31T13:51:24.370Z,0.00
2018-08-31T13:53:51.861Z,2.20
2018-08-31T13:56:18.660Z,1.60
2018-08-31T13:58:45.161Z,2.80
2018-08-31T14:01:12.935Z,2.20
2018-08-31T14:03:39.912Z,0.20
2018-08-31T14:06:06.398Z,1.00
2018-08-31T14:08:33.800Z,1.00
2018-08-31T14:11:00.850Z,1.00
2018-08-31T14:13:27.430Z,1.00
2018-08-31T14:15:54.045Z,0.60
2018-08-31T14:18:20.973Z,1.00
2018-08-31T14:20:47.449Z,3.00
2018-08-31T14:23:14.285Z,3.60
2018-08-31T14:25:41.290Z,3.00
2018-08-31T14:28:07.749Z,1.00
2018-08-31T14:30:35.290Z,1.00
2018-08-31T14:33:03.768Z,0.80
2018-08-31T14:35:30.977Z,2.20
2018-08-31T14:37:58.167Z,0.60
2018-08-31T14:40:24.720Z,1.00
2018-08-31T14:42:51.520Z,0.00
2018-08-31T14:45:19.410Z,2.20
2018-08-31T14:47:46.980Z,1.00
2018-08-31T14:50:14.260Z,1.00
2018-08-31T14:52:41.262Z,1.00
2018-08-31T14:55:09.157Z,1.00
2018-08-31T14:57:35.679Z,1.00
2018-08-31T15:00:02.636Z,3.00
2018-08-31T15:02:29.124Z,3.20
2018-08-31T15:04:56.257Z,2.20
2018-08-31T15:07:23.163Z,3.00
2018-08-31T15:09:50.354Z,3.00
2018-08-31T15:12:17.330Z,1.00
2018-08-31T15:14:45.511Z,1.60
2018-08-31T15:17:12.371Z,2.80
2018-08-31T15:19:42.920Z,3.20
2018-08-31T15:22:11.064Z,2.00
2018-08-31T15:24:38.392Z,4.00
2018-08-31T15:27:06.525Z,1.80
2018-08-31T15:29:33.501Z,1.00
2018-08-31T15:32:01.883Z,1.80
2018-08-31T15:34:28.404Z,1.00
2018-08-31T15:37:00.455Z,1.00
2018-08-31T15:39:26.969Z,0.20
2018-08-31T15:41:56.541Z,1.00
2018-08-31T15:44:24.720Z,1.00
2018-08-31T15:46:51.241Z,1.00
2018-08-31T15:49:17.862Z,1.00
2018-08-31T15:51:45.333Z,2.20
2018-08-31T15:54:11.800Z,1.00
2018-08-31T15:56:38.325Z,1.20
2018-08-31T15:59:05.254Z,0.40
2018-08-31T16:01:32.134Z,1.00
2018-08-31T16:03:58.636Z,0.40
2018-08-31T16:06:26.148Z,1.20
2018-08-31T16:08:52.639Z,0.40
2018-08-31T16:11:19.921Z,1.00
2018-08-31T16:13:46.869Z,1.00
2018-08-31T16:16:14.004Z,1.00
2018-08-31T16:18:40.502Z,1.00
2018-08-31T16:21:07.903Z,0.60
2018-08-31T16:23:35.462Z,0.00
2018-08-31T16:26:03.401Z,0.00
2018-08-31T16:28:31.443Z,0.40
2018-08-31T16:31:03.479Z,1.00
2018-08-31T16:33:33.052Z,0.60
2018-08-31T16:36:01.402Z,0.00
2018-08-31T16:38:29.693Z,0.00
2018-08-31T16:40:57.341Z,0.00
2018-08-31T16:43:24.451Z,0.40
2018-08-31T16:45:50.971Z,0.00
2018-08-31T16:48:17.658Z,0.60
2018-08-31T16:50:45.474Z,1.00
2018-08-31T16:53:11.942Z,1.00
2018-08-31T16:55:38.440Z,0.00
2018-08-31T16:58:05.441Z,0.00
2018-08-31T17:00:31.997Z,0.00
2018-08-31T17:02:58.473Z,0.00
2018-08-31T17:05:25.406Z,0.60
2018-08-31T17:07:51.974Z,0.00
2018-08-31T17:10:18.421Z,0.00
2018-08-31T17:12:45.196Z,0.00
2018-08-31T17:15:12.573Z,0.00
2018-08-31T17:17:39.059Z,0.00
2018-08-31T17:20:05.845Z,0.00
2018-08-31T17:22:32.333Z,0.20
2018-08-31T17:24:58.788Z,1.00
2018-08-31T17:27:26.550Z,0.00
2018-08-31T17:29:53.297Z,0.60
2018-08-31T17:32:19.784Z,0.00
2018-08-31T17:34:46.559Z,1.00
2018-08-31T17:37:13.045Z,0.60
2018-08-31T17:39:39.688Z,0.40
2018-08-31T17:42:08.150Z,0.00
2018-08-31T17:44:34.605Z,0.00
2018-08-31T17:47:01.346Z,1.00
2018-08-31T17:49:29.762Z,0.20
2018-08-31T17:51:56.438Z,1.00
2018-08-31T17:54:23.707Z,0.00
2018-08-31T17:56:50.562Z,0.00
2018-08-31T17:59:24.739Z,0.00
2018-08-31T18:01:51.309Z,0.00
2018-08-31T18:04:17.987Z,0.20
2018-08-31T18:06:44.486Z,1.00
2018-08-31T18:09:12.358Z,0.00
2018-08-31T18:11:38.991Z,1.00
2018-08-31T18:14:05.622Z,1.00
2018-08-31T18:16:34.249Z,1.00
2018-08-31T18:19:04.693Z,1.00
2018-08-31T18:21:32.812Z,1.00
2018-08-31T18:23:59.729Z,1.00
2018-08-31T18:26:28.027Z,0.60
2018-08-31T18:28:54.494Z,0.20
2018-08-31T18:31:22.410Z,0.00
2018-08-31T18:33:50.112Z,0.00
2018-08-31T18:36:16.567Z,0.20
2018-08-31T18:38:43.350Z,1.00
2018-08-31T18:41:09.850Z,1.00
2018-08-31T18:43:37.877Z,1.00
2018-08-31T18:46:05.139Z,0.80
2018-08-31T18:48:31.605Z,0.00
2018-08-31T18:50:59.950Z,0.00
2018-08-31T18:53:26.770Z,0.00
2018-08-31T18:55:53.263Z,1.00
2018-08-31T18:58:20.440Z,1.00
2018-08-31T19:00:49.440Z,0.20
2018-08-31T19:03:15.938Z,1.00
2018-08-31T19:05:42.402Z,1.00
2018-08-31T19:08:09.312Z,0.00
2018-08-31T19:10:35.765Z,1.00
2018-08-31T19:13:04.513Z,2.60
2018-08-31T19:15:32.852Z,1.40
2018-08-31T19:18:00.471Z,4.00
2018-08-31T19:20:27.027Z,3.00
2018-08-31T19:22:54.050Z,2.60
2018-08-31T19:25:20.533Z,3.00
2018-08-31T19:30:20.205Z,1.00
2018-08-31T19:32:47.269Z,1.80
2018-08-31T19:35:13.761Z,2.60
2018-08-31T19:37:41.174Z,2.20
2018-08-31T19:40:07.650Z,1.00
2018-08-31T19:42:35.165Z,1.00
2018-08-31T19:45:02.927Z,1.00
2018-08-31T19:47:31.843Z,1.00
2018-08-31T19:49:58.323Z,1.00
2018-08-31T19:52:25.153Z,1.00
2018-08-31T19:57:25.695Z,0.80
2018-08-31T19:59:52.648Z,1.00
2018-08-31T20:02:21.143Z,0.60
2018-08-31T20:04:49.422Z,1.00
2018-08-31T20:07:16.685Z,1.00
2018-08-31T20:09:43.854Z,1.00
2018-08-31T20:12:11.560Z,1.00
2018-08-31T20:14:40.386Z,1.00
2018-08-31T20:17:07.009Z,1.00
2018-08-31T20:19:34.107Z,0.80
2018-08-31T20:22:01.255Z,1.00
2018-08-31T20:24:27.795Z,1.80
2018-08-31T20:26:55.454Z,1.00
2018-08-31T20:29:22.275Z,1.00
2018-08-31T20:31:49.725Z,1.40
2018-08-31T20:34:16.364Z,1.00
2018-08-31T20:36:43.838Z,1.00
2018-08-31T20:39:10.662Z,1.00
2018-08-31T20:41:37.246Z,1.00
2018-08-31T20:44:04.109Z,0.00
2018-08-31T20:46:30.714Z,0.00
2018-08-31T20:48:57.649Z,4.00
2018-08-31T20:51:24.999Z,4.00
2018-08-31T20:53:51.669Z,2.60
2018-08-31T20:56:18.793Z,7.00
2018-08-31T20:58:47.001Z,7.00
2018-08-31T21:01:13.509Z,4.40
2018-08-31T21:03:40.303Z,4.00
2018-08-31T21:06:07.125Z,5.60
2018-08-31T21:08:34.253Z,4.00
2018-08-31T21:11:01.364Z,5.20
2018-08-31T21:13:29.201Z,3.00
2018-08-31T21:15:57.407Z,6.00
2018-08-31T21:18:24.793Z,3.40
2018-08-31T21:20:52.661Z,3.00
2018-08-31T21:23:20.980Z,4.40
2018-08-31T21:25:48.358Z,4.80
2018-08-31T21:30:47.796Z,6.60
2018-08-31T21:33:14.486Z,3.00
2018-08-31T21:35:43.727Z,4.00
2018-08-31T21:38:10.251Z,3.20
2018-08-31T21:40:36.760Z,3.60
2018-08-31T21:43:03.558Z,2.20
2018-08-31T21:45:30.053Z,3.00
2018-08-31T21:47:56.527Z,6.00
2018-08-31T21:50:23.686Z,3.00
2018-08-31T21:52:50.297Z,1.00
2018-08-31T21:55:16.827Z,3.00
2018-08-31T21:57:43.574Z,3.00
2018-08-31T22:00:11.026Z,3.00
2018-08-31T22:02:37.880Z,3.00
2018-08-31T22:05:04.667Z,3.00
2018-08-31T22:07:31.718Z,1.00
2018-08-31T22:09:58.185Z,2.60
2018-08-31T22:12:25.602Z,3.00
2018-08-31T22:14:52.061Z,3.00
2018-08-31T22:17:18.532Z,3.00
2018-08-31T22:19:45.313Z,1.00
2018-08-31T22:22:11.800Z,1.00
2018-08-31T22:24:38.268Z,1.00
2018-08-31T22:27:05.058Z,1.00
2018-08-31T22:29:31.513Z,3.60
2018-08-31T22:31:58.010Z,1.00
2018-08-31T22:34:24.840Z,2.20
2018-08-31T22:36:51.666Z,4.00
2018-08-31T22:39:19.339Z,3.00
2018-08-31T22:41:46.448Z,4.00
2018-08-31T22:44:12.933Z,3.00
2018-08-31T22:46:39.713Z,3.00
2018-08-31T22:49:06.173Z,3.20
2018-08-31T22:51:32.670Z,1.00
2018-08-31T22:53:59.446Z,3.00
2018-08-31T22:56:26.018Z,1.80
2018-08-31T22:58:52.477Z,2.20
2018-08-31T23:01:21.056Z,3.00
2018-08-31T23:03:47.504Z,3.00
2018-08-31T23:06:14.022Z,3.00
2018-08-31T23:08:40.789Z,2.60
2018-08-31T23:11:07.274Z,1.00
2018-08-31T23:13:33.774Z,3.00
2018-08-31T23:16:01.231Z,3.00
2018-08-31T23:18:27.698Z,3.00
2018-08-31T23:20:54.186Z,1.80
2018-08-31T23:23:21.009Z,3.00
2018-08-31T23:25:47.523Z,3.00
2018-08-31T23:28:14.031Z,3.60
2018-08-31T23:30:40.925Z,3.00
2018-08-31T23:33:07.441Z,1.00
2018-08-31T23:35:33.934Z,3.00
2018-08-31T23:38:00.438Z,3.00
2018-08-31T23:40:27.277Z,2.60
2018-08-31T23:42:53.829Z,1.00
2018-08-31T23:45:20.313Z,0.80
2018-08-31T23:47:47.297Z,0.80
2018-08-31T23:50:13.761Z,1.00
2018-08-31T23:52:41.124Z,1.40
2018-08-31T23:55:08.281Z,1.40
2018-08-31T23:57:36.150Z,1.80
